Time;durP1;ratioP1;P1;durP2;ratioP2;P2;SDS_P1;SDS_P2;PMS_P1;PMS_P2;Temp;Humidity;BMP_temperature;BMP_pressure;BME280_temperature;BME280_humidity;BME280_pressure;Samples;Min_cycle;Max_cycle;Signal;HPM_P1;HPM_P2
2023/12/02 00:01:23;;;;;;;14.95;7.53;;;;;;;;;;5044356;28;20037;-62
2023/12/02 00:03:49;;;;;;;15.15;7.97;;;;;;;;;;5048545;28;20079;-62
2023/12/02 00:06:14;;;;;;;14.50;7.30;;;;;;;;;;5031760;28;20041;-62
2023/12/02 00:08:39;;;;;;;15.10;7.43;;;;;;;;;;5037392;28;20382;-62
2023/12/02 00:11:05;;;;;;;12.55;6.68;;;;;;;;;;5040197;28;20025;-62
2023/12/02 00:13:30;;;;;;;11.63;6.10;;;;;;;;;;5024287;28;20037;-61
2023/12/02 00:15:56;;;;;;;13.00;6.65;;;;;;;;;;5048560;28;20395;-61
2023/12/02 00:18:21;;;;;;;12.00;6.13;;;;;;;;;;5048043;28;20025;-61
2023/12/02 00:20:46;;;;;;;12.90;6.68;;;;;;;;;;5047913;28;20088;-61
2023/12/02 00:23:12;;;;;;;12.88;6.60;;;;;;;;;;5048513;28;20491;-62
2023/12/02 00:25:37;;;;;;;9.88;5.63;;;;;;;;;;5044930;28;20522;-65
2023/12/02 00:28:03;;;;;;;10.73;5.80;;;;;;;;;;5031781;28;20041;-62
2023/12/02 00:30:29;;;;;;;12.32;6.43;;;;;;;;;;5051731;28;20041;-61
2023/12/02 00:32:55;;;;;;;12.88;6.35;;;;;;;;;;5041060;28;20060;-62
2023/12/02 00:35:20;;;;;;;12.25;6.05;;;;;;;;;;5043165;28;20056;-63
2023/12/02 00:37:45;;;;;;;11.68;6.32;;;;;;;;;;5034270;28;20478;-62
2023/12/02 00:40:11;;;;;;;12.65;6.55;;;;;;;;;;5045491;28;20151;-62
2023/12/02 00:42:36;;;;;;;10.95;5.57;;;;;;;;;;5041050;28;20064;-62
2023/12/02 00:45:02;;;;;;;13.85;6.65;;;;;;;;;;5042471;28;20029;-61
2023/12/02 00:47:27;;;;;;;12.63;6.53;;;;;;;;;;5042880;28;20033;-62
2023/12/02 00:49:52;;;;;;;15.07;6.63;;;;;;;;;;5041454;28;20388;-61
2023/12/02 00:52:18;;;;;;;15.18;7.10;;;;;;;;;;5037365;28;20044;-61
2023/12/02 00:54:44;;;;;;;13.35;6.85;;;;;;;;;;5038130;28;20087;-61
2023/12/02 00:57:09;;;;;;;13.90;6.82;;;;;;;;;;5040211;28;20025;-61
2023/12/02 00:59:35;;;;;;;13.27;6.97;;;;;;;;;;5043597;28;20036;-61
2023/12/02 01:02:00;;;;;;;12.85;7.15;;;;;;;;;;5045276;28;20033;-61
2023/12/02 01:04:25;;;;;;;13.65;6.80;;;;;;;;;;5044276;28;20032;-61
2023/12/02 01:06:51;;;;;;;15.93;6.50;;;;;;;;;;5048736;28;20024;-62
2023/12/02 01:09:16;;;;;;;11.15;6.05;;;;;;;;;;5047519;28;20033;-63
2023/12/02 01:11:42;;;;;;;13.52;7.10;;;;;;;;;;5042749;28;20391;-62
2023/12/02 01:14:07;;;;;;;11.20;6.35;;;;;;;;;;5038872;28;20037;-62
2023/12/02 01:16:32;;;;;;;12.68;7.00;;;;;;;;;;5039030;28;20031;-62
2023/12/02 01:18:58;;;;;;;12.82;6.90;;;;;;;;;;5051083;28;20041;-62
2023/12/02 01:21:23;;;;;;;13.88;6.78;;;;;;;;;;5045555;28;20383;-63
2023/12/02 01:23:49;;;;;;;13.00;6.00;;;;;;;;;;5048497;28;20087;-62
2023/12/02 01:26:14;;;;;;;12.70;6.00;;;;;;;;;;5023527;28;20478;-62
2023/12/02 01:28:39;;;;;;;15.13;7.03;;;;;;;;;;5043167;28;20032;-62
2023/12/02 01:31:05;;;;;;;13.77;6.70;;;;;;;;;;5046966;28;20037;-62
2023/12/02 01:33:31;;;;;;;13.75;6.53;;;;;;;;;;5049075;28;20094;-62
2023/12/02 01:35:56;;;;;;;11.70;6.65;;;;;;;;;;5023498;28;20455;-62
2023/12/02 01:38:22;;;;;;;12.10;6.25;;;;;;;;;;5048673;28;20071;-61
2023/12/02 01:40:47;;;;;;;15.60;7.20;;;;;;;;;;5050301;28;20481;-61
2023/12/02 01:43:24;;;;;;;16.17;7.32;;;;;;;;;;5046476;28;20043;-62
2023/12/02 01:45:49;;;;;;;12.73;6.35;;;;;;;;;;5030447;28;20103;-62
2023/12/02 01:48:14;;;;;;;14.13;7.25;;;;;;;;;;5043168;28;20456;-62
2023/12/02 01:50:40;;;;;;;17.23;7.38;;;;;;;;;;5048183;28;20394;-63
2023/12/02 01:53:06;;;;;;;12.70;7.05;;;;;;;;;;5041999;28;20029;-63
2023/12/02 01:55:31;;;;;;;14.65;7.30;;;;;;;;;;5044259;28;20471;-62
2023/12/02 01:57:56;;;;;;;13.65;7.07;;;;;;;;;;5042232;28;20659;-62
2023/12/02 02:00:23;;;;;;;15.93;7.95;;;;;;;;;;5033017;28;20037;-62
2023/12/02 02:02:48;;;;;;;14.10;6.82;;;;;;;;;;5027316;28;20032;-61
2023/12/02 02:05:14;;;;;;;15.77;7.57;;;;;;;;;;5042578;28;20106;-62
2023/12/02 02:07:39;;;;;;;14.52;7.18;;;;;;;;;;5039275;28;20112;-61
2023/12/02 02:10:05;;;;;;;15.57;7.90;;;;;;;;;;5041539;28;20471;-62
2023/12/02 02:12:31;;;;;;;14.80;7.70;;;;;;;;;;5043302;28;20041;-62
2023/12/02 02:14:56;;;;;;;14.45;7.45;;;;;;;;;;5046747;28;20651;-61
2023/12/02 02:17:22;;;;;;;15.35;7.60;;;;;;;;;;5043918;28;20422;-61
2023/12/02 02:19:47;;;;;;;16.73;7.90;;;;;;;;;;5039946;28;20046;-62
2023/12/02 02:22:12;;;;;;;17.65;7.63;;;;;;;;;;5033098;28;20111;-61
2023/12/02 02:24:38;;;;;;;17.48;8.00;;;;;;;;;;5049770;28;20112;-61
2023/12/02 02:27:04;;;;;;;16.33;7.65;;;;;;;;;;5049301;28;20044;-61
2023/12/02 02:29:29;;;;;;;15.77;7.80;;;;;;;;;;5024444;28;20038;-62
2023/12/02 02:31:55;;;;;;;15.48;7.55;;;;;;;;;;5030943;28;20116;-61
2023/12/02 02:34:20;;;;;;;16.25;7.38;;;;;;;;;;5054905;28;20059;-61
2023/12/02 02:36:46;;;;;;;14.65;7.80;;;;;;;;;;5051514;28;20444;-61
2023/12/02 02:39:11;;;;;;;14.88;7.07;;;;;;;;;;5046022;28;20044;-62
2023/12/02 02:41:36;;;;;;;15.07;7.55;;;;;;;;;;5050484;28;20038;-61
2023/12/02 02:44:02;;;;;;;15.55;7.72;;;;;;;;;;5043073;28;20044;-60
2023/12/02 02:46:27;;;;;;;15.80;7.35;;;;;;;;;;5047199;28;20108;-61
2023/12/02 02:48:52;;;;;;;14.55;7.25;;;;;;;;;;5051223;28;20044;-61
2023/12/02 02:51:18;;;;;;;14.60;6.70;;;;;;;;;;5050483;28;20041;-61
2023/12/02 02:53:44;;;;;;;14.07;6.82;;;;;;;;;;5053328;28;20114;-61
2023/12/02 02:56:10;;;;;;;12.85;6.53;;;;;;;;;;5036072;28;20025;-61
2023/12/02 02:58:36;;;;;;;13.82;6.68;;;;;;;;;;5041006;28;20045;-61
2023/12/02 03:01:02;;;;;;;12.88;6.60;;;;;;;;;;5041303;28;20037;-61
2023/12/02 03:03:28;;;;;;;13.85;6.80;;;;;;;;;;5048752;28;20090;-61
2023/12/02 03:05:55;;;;;;;14.27;7.43;;;;;;;;;;5053392;28;20053;-61
2023/12/02 03:08:20;;;;;;;15.95;7.32;;;;;;;;;;5044407;28;20035;-61
2023/12/02 03:10:48;;;;;;;14.30;7.35;;;;;;;;;;5051966;28;20456;-61
2023/12/02 03:13:14;;;;;;;17.85;7.70;;;;;;;;;;5045112;28;20063;-61
2023/12/02 03:15:39;;;;;;;13.63;6.82;;;;;;;;;;5049344;28;20033;-61
2023/12/02 03:18:04;;;;;;;14.27;6.65;;;;;;;;;;5039869;28;20476;-62
2023/12/02 03:20:30;;;;;;;14.70;6.97;;;;;;;;;;5024188;28;20049;-63
2023/12/02 03:22:55;;;;;;;14.88;7.00;;;;;;;;;;5044719;28;20041;-62
2023/12/02 03:25:20;;;;;;;15.88;7.05;;;;;;;;;;5050807;28;20037;-61
2023/12/02 03:27:46;;;;;;;15.15;7.22;;;;;;;;;;5042058;28;20044;-61
2023/12/02 03:30:12;;;;;;;11.95;6.32;;;;;;;;;;5043107;28;20036;-61
2023/12/02 03:32:38;;;;;;;12.25;6.50;;;;;;;;;;5046474;28;20513;-61
2023/12/02 03:35:08;;;;;;;14.02;7.00;;;;;;;;;;5045591;28;20117;-61
2023/12/02 03:37:34;;;;;;;13.98;6.90;;;;;;;;;;5033726;28;20029;-61
2023/12/02 03:40:00;;;;;;;14.32;7.10;;;;;;;;;;5031258;28;20092;-61
2023/12/02 03:42:25;;;;;;;15.27;6.40;;;;;;;;;;5043325;28;20041;-61
2023/12/02 03:44:51;;;;;;;15.80;6.78;;;;;;;;;;5050195;28;20085;-61
2023/12/02 03:47:16;;;;;;;15.38;6.97;;;;;;;;;;5053251;28;20372;-61
2023/12/02 03:49:41;;;;;;;15.00;7.13;;;;;;;;;;5045212;28;20387;-61
2023/12/02 03:52:07;;;;;;;16.05;7.35;;;;;;;;;;5049605;28;20044;-61
2023/12/02 03:54:32;;;;;;;17.77;8.02;;;;;;;;;;5049496;28;21736;-61
2023/12/02 03:56:57;;;;;;;15.98;7.53;;;;;;;;;;5046195;28;20025;-61
2023/12/02 03:59:23;;;;;;;15.93;7.57;;;;;;;;;;5044034;28;20123;-61
2023/12/02 04:01:48;;;;;;;19.02;8.55;;;;;;;;;;5039445;28;20033;-61
2023/12/02 04:04:14;;;;;;;18.10;8.15;;;;;;;;;;5038355;28;20025;-61
2023/12/02 04:06:39;;;;;;;15.88;7.53;;;;;;;;;;5043428;28;20076;-61
2023/12/02 04:09:05;;;;;;;17.13;8.23;;;;;;;;;;5051935;28;20115;-61
2023/12/02 04:11:31;;;;;;;17.73;8.50;;;;;;;;;;5049101;28;20033;-61
2023/12/02 04:13:56;;;;;;;16.30;7.85;;;;;;;;;;5047153;28;20079;-61
2023/12/02 04:16:22;;;;;;;17.00;8.13;;;;;;;;;;5036811;28;20049;-61
2023/12/02 04:18:47;;;;;;;15.90;7.65;;;;;;;;;;5049487;28;20372;-60
2023/12/02 04:21:13;;;;;;;18.67;7.95;;;;;;;;;;5036223;28;20418;-61
2023/12/02 04:23:39;;;;;;;15.88;8.05;;;;;;;;;;5013114;28;20057;-61
2023/12/02 04:26:06;;;;;;;15.45;7.07;;;;;;;;;;5013608;28;20109;-61
2023/12/02 04:28:33;;;;;;;15.35;7.43;;;;;;;;;;5047491;28;20037;-61
2023/12/02 04:30:58;;;;;;;15.65;7.32;;;;;;;;;;5043198;28;20104;-61
2023/12/02 04:33:24;;;;;;;16.10;7.28;;;;;;;;;;5047924;28;20116;-61
2023/12/02 04:35:49;;;;;;;13.93;6.70;;;;;;;;;;5044433;28;20104;-61
2023/12/02 04:38:15;;;;;;;17.40;7.85;;;;;;;;;;5044302;28;20473;-61
2023/12/02 04:40:41;;;;;;;17.52;8.43;;;;;;;;;;5043501;28;20086;-61
2023/12/02 04:43:06;;;;;;;19.48;8.48;;;;;;;;;;5049482;28;20064;-61
2023/12/02 04:45:32;;;;;;;15.68;7.15;;;;;;;;;;5043135;28;20036;-61
2023/12/02 04:47:57;;;;;;;18.70;8.25;;;;;;;;;;5043475;28;20110;-61
2023/12/02 04:50:23;;;;;;;16.52;7.93;;;;;;;;;;5012479;28;20121;-61
2023/12/02 04:52:48;;;;;;;15.90;7.32;;;;;;;;;;5048772;28;20471;-61
2023/12/02 04:55:14;;;;;;;16.50;8.13;;;;;;;;;;5051083;28;20036;-61
2023/12/02 04:57:40;;;;;;;16.65;7.85;;;;;;;;;;5045706;28;20469;-61
2023/12/02 05:00:13;;;;;;;17.75;7.95;;;;;;;;;;5051294;28;20029;-61
2023/12/02 05:02:43;;;;;;;18.55;8.02;;;;;;;;;;5042632;28;20073;-61
2023/12/02 05:05:09;;;;;;;17.42;8.10;;;;;;;;;;5048683;28;20044;-62
2023/12/02 05:07:35;;;;;;;17.55;8.32;;;;;;;;;;5040763;28;20284;-62
2023/12/02 05:10:00;;;;;;;15.98;7.57;;;;;;;;;;5051348;28;20474;-61
2023/12/02 05:12:26;;;;;;;16.48;7.88;;;;;;;;;;5042788;28;20080;-61
2023/12/02 05:14:51;;;;;;;16.88;8.50;;;;;;;;;;5046901;28;20034;-61
2023/12/02 05:17:17;;;;;;;16.70;7.55;;;;;;;;;;5044595;28;20474;-61
2023/12/02 05:19:43;;;;;;;16.35;7.72;;;;;;;;;;5047337;28;20124;-62
2023/12/02 05:22:08;;;;;;;15.73;7.50;;;;;;;;;;5044319;28;20035;-61
2023/12/02 05:24:33;;;;;;;16.55;7.85;;;;;;;;;;5041291;28;20048;-61
2023/12/02 05:26:59;;;;;;;16.83;7.75;;;;;;;;;;5041213;28;20091;-61
2023/12/02 05:29:24;;;;;;;18.13;8.07;;;;;;;;;;5047625;28;20025;-62
2023/12/02 05:31:50;;;;;;;16.20;7.97;;;;;;;;;;5042355;28;20035;-61
2023/12/02 05:34:16;;;;;;;16.65;7.70;;;;;;;;;;5045988;28;20116;-62
2023/12/02 05:36:45;;;;;;;17.30;7.88;;;;;;;;;;5049280;28;20431;-61
2023/12/02 05:39:11;;;;;;;15.40;7.80;;;;;;;;;;5041980;28;20048;-62
2023/12/02 05:41:40;;;;;;;16.75;8.02;;;;;;;;;;5047567;28;20090;-60
2023/12/02 05:44:05;;;;;;;17.73;8.25;;;;;;;;;;5043235;28;20090;-62
2023/12/02 05:46:30;;;;;;;16.00;8.43;;;;;;;;;;5046375;28;20033;-62
2023/12/02 05:48:56;;;;;;;16.58;8.13;;;;;;;;;;5050510;28;20021;-62
2023/12/02 05:51:22;;;;;;;17.50;8.05;;;;;;;;;;5048780;28;20491;-61
2023/12/02 05:53:47;;;;;;;16.23;8.02;;;;;;;;;;5044207;28;20086;-62
2023/12/02 05:56:13;;;;;;;15.50;7.90;;;;;;;;;;5044652;28;20037;-62
2023/12/02 05:58:38;;;;;;;15.38;7.75;;;;;;;;;;5029156;28;20460;-61
2023/12/02 06:01:04;;;;;;;17.65;7.75;;;;;;;;;;5042927;28;20037;-61
2023/12/02 06:03:29;;;;;;;16.75;8.30;;;;;;;;;;5046974;28;20033;-61
2023/12/02 06:05:55;;;;;;;16.20;7.45;;;;;;;;;;5042585;28;20075;-62
2023/12/02 06:08:21;;;;;;;14.55;7.63;;;;;;;;;;5039850;28;20028;-62
2023/12/02 06:10:46;;;;;;;16.77;8.02;;;;;;;;;;5041965;28;20024;-62
2023/12/02 06:13:11;;;;;;;15.50;7.93;;;;;;;;;;5014972;28;20257;-61
2023/12/02 06:15:37;;;;;;;16.70;8.10;;;;;;;;;;5011446;28;20057;-61
2023/12/02 06:18:03;;;;;;;17.13;7.78;;;;;;;;;;5036760;28;20112;-62
2023/12/02 06:20:28;;;;;;;16.95;7.95;;;;;;;;;;5047072;28;20059;-62
2023/12/02 06:22:54;;;;;;;15.95;7.85;;;;;;;;;;5033015;28;20029;-61
2023/12/02 06:25:19;;;;;;;15.88;7.97;;;;;;;;;;5033462;28;20033;-62
2023/12/02 06:27:45;;;;;;;16.88;8.00;;;;;;;;;;5045496;28;20044;-61
2023/12/02 06:30:12;;;;;;;14.68;7.43;;;;;;;;;;5050370;28;20025;-61
2023/12/02 06:32:37;;;;;;;18.35;8.10;;;;;;;;;;5042163;28;20028;-61
2023/12/02 06:35:04;;;;;;;15.63;7.53;;;;;;;;;;5031926;28;20466;-63
2023/12/02 06:37:29;;;;;;;17.90;7.82;;;;;;;;;;5036561;28;20376;-61
2023/12/02 06:39:54;;;;;;;16.75;7.80;;;;;;;;;;5017273;28;20091;-60
2023/12/02 06:42:20;;;;;;;16.83;8.02;;;;;;;;;;5045630;28;20042;-62
2023/12/02 06:44:46;;;;;;;17.00;7.88;;;;;;;;;;5050834;28;20072;-62
2023/12/02 06:47:13;;;;;;;18.70;8.20;;;;;;;;;;5045113;28;20497;-61
2023/12/02 06:49:38;;;;;;;18.42;8.05;;;;;;;;;;5011500;28;20476;-61
2023/12/02 06:52:03;;;;;;;15.73;7.72;;;;;;;;;;5010414;28;20033;-62
2023/12/02 06:54:29;;;;;;;18.05;8.15;;;;;;;;;;5011372;28;20108;-62
2023/12/02 06:56:54;;;;;;;17.33;8.20;;;;;;;;;;5010978;28;20042;-61
2023/12/02 06:59:19;;;;;;;17.70;8.57;;;;;;;;;;5011223;28;20038;-61
2023/12/02 07:01:45;;;;;;;17.42;8.57;;;;;;;;;;5029219;28;20116;-63
2023/12/02 07:04:10;;;;;;;15.98;8.07;;;;;;;;;;5026631;28;20037;-61
2023/12/02 07:06:39;;;;;;;17.48;8.05;;;;;;;;;;5028268;28;20030;-61
2023/12/02 07:09:05;;;;;;;15.70;7.93;;;;;;;;;;5013796;28;20038;-61
2023/12/02 07:11:31;;;;;;;15.68;7.85;;;;;;;;;;5014741;28;20034;-61
2023/12/02 07:13:56;;;;;;;17.63;8.27;;;;;;;;;;5013740;28;20034;-61
2023/12/02 07:16:21;;;;;;;18.10;8.40;;;;;;;;;;5014218;28;20058;-61
2023/12/02 07:18:47;;;;;;;17.95;8.80;;;;;;;;;;5014263;28;20030;-61
2023/12/02 07:21:12;;;;;;;15.68;7.78;;;;;;;;;;5014021;28;20575;-61
2023/12/02 07:23:37;;;;;;;17.58;8.07;;;;;;;;;;5016068;28;20074;-62
2023/12/02 07:26:04;;;;;;;17.55;8.43;;;;;;;;;;5014570;28;20044;-61
2023/12/02 07:28:30;;;;;;;18.35;8.73;;;;;;;;;;5014250;28;20034;-62
2023/12/02 07:30:55;;;;;;;16.63;7.93;;;;;;;;;;5013730;28;20443;-61
2023/12/02 07:33:22;;;;;;;17.98;8.43;;;;;;;;;;5014529;28;20054;-61
2023/12/02 07:35:47;;;;;;;18.75;8.60;;;;;;;;;;5014244;28;20040;-61
2023/12/02 07:38:13;;;;;;;17.23;8.43;;;;;;;;;;5014530;28;20602;-62
2023/12/02 07:40:38;;;;;;;18.30;8.77;;;;;;;;;;5014186;28;20219;-61
2023/12/02 07:43:04;;;;;;;17.52;8.23;;;;;;;;;;5011950;28;20473;-61
2023/12/02 07:45:29;;;;;;;15.52;7.28;;;;;;;;;;5028652;28;20046;-61
2023/12/02 07:47:55;;;;;;;14.80;7.20;;;;;;;;;;5033750;28;20030;-61
2023/12/02 07:50:21;;;;;;;12.82;6.40;;;;;;;;;;5033005;28;20435;-61
2023/12/02 07:52:46;;;;;;;14.25;6.40;;;;;;;;;;5033672;28;20357;-61
2023/12/02 07:55:12;;;;;;;15.65;6.72;;;;;;;;;;5013909;28;20042;-61
2023/12/02 07:57:37;;;;;;;15.40;7.57;;;;;;;;;;5014114;28;20084;-61
2023/12/02 08:00:04;;;;;;;12.68;6.30;;;;;;;;;;5018627;28;20038;-60
2023/12/02 08:02:29;;;;;;;13.00;6.30;;;;;;;;;;5033326;28;20041;-60
2023/12/02 08:04:54;;;;;;;15.75;7.68;;;;;;;;;;5033368;28;20033;-60
2023/12/02 08:07:20;;;;;;;13.52;6.82;;;;;;;;;;5032410;28;20459;-60
2023/12/02 08:09:45;;;;;;;16.40;7.25;;;;;;;;;;5019374;28;20029;-60
2023/12/02 08:12:10;;;;;;;13.63;7.05;;;;;;;;;;5029490;28;20032;-61
2023/12/02 08:14:36;;;;;;;16.85;7.43;;;;;;;;;;5027425;28;20364;-60
2023/12/02 08:17:02;;;;;;;14.88;7.22;;;;;;;;;;5026751;28;20053;-60
2023/12/02 08:19:28;;;;;;;15.27;7.05;;;;;;;;;;5020972;28;20061;-63
2023/12/02 08:21:54;;;;;;;15.80;7.07;;;;;;;;;;5013505;28;20388;-65
2023/12/02 08:24:19;;;;;;;15.73;7.50;;;;;;;;;;5012290;28;20041;-65
2023/12/02 08:26:47;;;;;;;15.82;7.32;;;;;;;;;;5013218;28;20073;-61
2023/12/02 08:29:12;;;;;;;15.27;7.70;;;;;;;;;;5012253;28;20057;-61
2023/12/02 08:31:38;;;;;;;16.73;7.30;;;;;;;;;;5023908;28;20069;-61
2023/12/02 08:34:03;;;;;;;16.27;6.80;;;;;;;;;;5027200;28;20022;-61
2023/12/02 08:36:28;;;;;;;14.68;7.60;;;;;;;;;;5015121;28;20495;-61
2023/12/02 08:38:54;;;;;;;17.70;8.18;;;;;;;;;;5012468;28;20034;-61
2023/12/02 08:41:19;;;;;;;17.67;7.93;;;;;;;;;;5012155;28;20025;-61
2023/12/02 08:43:44;;;;;;;18.65;7.93;;;;;;;;;;5012923;28;20048;-60
2023/12/02 08:46:14;;;;;;;18.92;8.43;;;;;;;;;;5012435;28;20465;-60
2023/12/02 08:48:40;;;;;;;17.38;8.38;;;;;;;;;;5025631;28;20419;-61
2023/12/02 08:51:05;;;;;;;16.40;8.10;;;;;;;;;;5030162;28;20033;-61
2023/12/02 08:53:31;;;;;;;16.38;7.72;;;;;;;;;;5030793;28;20046;-61
2023/12/02 08:55:56;;;;;;;17.08;8.48;;;;;;;;;;5024043;28;20040;-60
2023/12/02 08:58:21;;;;;;;17.20;7.88;;;;;;;;;;5030424;28;20030;-61
2023/12/02 09:00:47;;;;;;;17.23;7.32;;;;;;;;;;5025050;28;20025;-60
2023/12/02 09:03:12;;;;;;;16.75;8.30;;;;;;;;;;5018713;28;20034;-60
2023/12/02 09:05:38;;;;;;;17.23;7.55;;;;;;;;;;5031994;28;20155;-60
2023/12/02 09:08:03;;;;;;;16.52;7.97;;;;;;;;;;5025036;28;20033;-59
2023/12/02 09:10:29;;;;;;;16.98;7.57;;;;;;;;;;5022067;28;20492;-60
2023/12/02 09:12:55;;;;;;;18.27;8.05;;;;;;;;;;5012242;28;20056;-60
2023/12/02 09:15:20;;;;;;;17.80;7.50;;;;;;;;;;5026017;28;20099;-60
2023/12/02 09:17:54;;;;;;;16.50;7.32;;;;;;;;;;5032189;28;20037;-61
2023/12/02 09:20:45;;;;;;;17.45;8.15;;;;;;;;;;5028767;28;20061;-61
2023/12/02 09:23:13;;;;;;;20.25;8.68;;;;;;;;;;5030668;28;20439;-61
2023/12/02 09:25:40;;;;;;;18.55;8.43;;;;;;;;;;5031518;28;20061;-60
2023/12/02 09:28:06;;;;;;;16.10;7.43;;;;;;;;;;5013855;28;20037;-60
2023/12/02 09:30:35;;;;;;;16.48;7.15;;;;;;;;;;5011656;28;20033;-61
2023/12/02 09:33:00;;;;;;;14.88;7.13;;;;;;;;;;5019143;28;20097;-61
2023/12/02 09:35:26;;;;;;;17.20;7.10;;;;;;;;;;5026461;28;20484;-60
2023/12/02 09:37:51;;;;;;;17.33;7.53;;;;;;;;;;5011710;28;20119;-60
2023/12/02 09:40:20;;;;;;;14.82;7.30;;;;;;;;;;5010378;28;20062;-61
2023/12/02 09:43:21;;;;;;;15.82;7.53;;;;;;;;;;5011813;28;20516;-60
2023/12/02 09:46:30;;;;;;;14.40;7.07;;;;;;;;;;5022082;28;20041;-60
2023/12/02 09:49:02;;;;;;;15.70;7.93;;;;;;;;;;4989740;28;20030;-61
2023/12/02 09:51:27;;;;;;;17.20;7.47;;;;;;;;;;4989379;28;20030;-61
2023/12/02 09:54:14;;;;;;;14.98;6.95;;;;;;;;;;5011666;28;20086;-60
2023/12/02 09:56:49;;;;;;;14.73;7.22;;;;;;;;;;5031471;28;20045;-60
2023/12/02 09:59:28;;;;;;;14.85;6.50;;;;;;;;;;5030642;28;20048;-60
2023/12/02 10:02:25;;;;;;;14.82;7.07;;;;;;;;;;5030698;28;20438;-60
2023/12/02 10:05:09;;;;;;;16.65;8.15;;;;;;;;;;5016679;28;20195;-61
2023/12/02 10:08:05;;;;;;;16.45;7.20;;;;;;;;;;5024085;28;20041;-60
2023/12/02 10:11:02;;;;;;;16.50;7.95;;;;;;;;;;5020742;28;20546;-60
2023/12/02 10:13:53;;;;;;;18.65;7.15;;;;;;;;;;5020360;28;20083;-60
2023/12/02 10:16:20;;;;;;;;;;;;;;;;;;5021373;28;20403;-59
2023/12/02 10:18:51;;;;;;;22.00;7.57;;;;;;;;;;5027135;28;19913;-60
2023/12/02 10:21:20;;;;;;;15.88;7.10;;;;;;;;;;5027660;28;20049;-60
2023/12/02 10:24:00;;;;;;;16.80;7.75;;;;;;;;;;5030238;28;20041;-60
2023/12/02 10:26:31;;;;;;;15.55;8.15;;;;;;;;;;5030427;28;20487;-60
2023/12/02 10:29:16;;;;;;;16.63;7.68;;;;;;;;;;5022601;28;20041;-61
2023/12/02 10:32:07;;;;;;;19.05;8.50;;;;;;;;;;5031184;28;20120;-62
2023/12/02 10:34:35;;;;;;;20.25;9.13;;;;;;;;;;5030977;28;20030;-61
2023/12/02 10:37:04;;;;;;;16.63;8.18;;;;;;;;;;5030765;28;20069;-61
2023/12/02 10:39:46;;;;;;;19.17;8.73;;;;;;;;;;5015885;28;20051;-60
2023/12/02 10:42:29;;;;;;;21.40;9.52;;;;;;;;;;5031314;28;20040;-60
2023/12/02 10:45:05;;;;;;;19.40;9.38;;;;;;;;;;5033700;28;20404;-61
2023/12/02 10:47:31;;;;;;;19.00;8.60;;;;;;;;;;5034141;28;20026;-62
2023/12/02 10:50:00;;;;;;;18.42;8.93;;;;;;;;;;5032982;28;20026;-61
2023/12/02 10:52:28;;;;;;;24.33;9.95;;;;;;;;;;5031990;28;20033;-61
2023/12/02 10:54:58;;;;;;;17.95;6.53;;;;;;;;;;5034770;28;20026;-61
2023/12/02 10:57:25;;;;;;;;;;;;;;;;;;5027405;28;20233;-62
2023/12/02 11:00:06;;;;;;;19.13;9.00;;;;;;;;;;5014881;28;19913;-62
2023/12/02 11:02:50;;;;;;;18.73;9.35;;;;;;;;;;5032748;28;20037;-62
2023/12/02 11:05:23;;;;;;;20.55;9.70;;;;;;;;;;5032164;28;20037;-62
2023/12/02 11:08:13;;;;;;;19.42;9.50;;;;;;;;;;5033906;28;20116;-62
2023/12/02 11:10:42;;;;;;;18.95;9.93;;;;;;;;;;5034103;28;20460;-62
2023/12/02 11:13:12;;;;;;;20.15;9.80;;;;;;;;;;5033724;28;20030;-62
2023/12/02 11:16:03;;;;;;;20.90;10.10;;;;;;;;;;5033847;28;20553;-62
2023/12/02 11:19:06;;;;;;;19.48;9.93;;;;;;;;;;5026857;28;20033;-62
2023/12/02 11:21:50;;;;;;;22.17;8.98;;;;;;;;;;5013604;28;20096;-62
2023/12/02 11:24:24;;;;;;;15.18;8.20;;;;;;;;;;5013452;28;20057;-62
2023/12/02 11:27:17;;;;;;;22.67;10.85;;;;;;;;;;5033127;28;20044;-63
2023/12/02 11:30:21;;;;;;;18.65;8.80;;;;;;;;;;5014281;28;20148;-63
2023/12/02 11:33:24;;;;;;;18.13;8.48;;;;;;;;;;5024447;28;20049;-63
2023/12/02 11:36:01;;;;;;;19.48;9.63;;;;;;;;;;5033338;28;20071;-63
2023/12/02 11:38:30;;;;;;;20.27;10.38;;;;;;;;;;5032860;28;20037;-63
2023/12/02 11:41:05;;;;;;;20.42;10.32;;;;;;;;;;5018628;28;20061;-62
2023/12/02 11:43:47;;;;;;;18.10;9.93;;;;;;;;;;5019407;28;20033;-63
2023/12/02 11:46:22;;;;;;;18.17;10.15;;;;;;;;;;5033013;28;20044;-63
2023/12/02 11:49:24;;;;;;;16.65;10.25;;;;;;;;;;5027955;28;20047;-61
2023/12/02 11:52:06;;;;;;;18.75;10.60;;;;;;;;;;5024260;28;20052;-61
2023/12/02 11:55:05;;;;;;;17.65;10.63;;;;;;;;;;5032500;28;20498;-61
2023/12/02 11:57:58;;;;;;;18.55;10.55;;;;;;;;;;5032430;28;20521;-61
2023/12/02 12:00:36;;;;;;;15.93;10.43;;;;;;;;;;5019081;28;20492;-63
2023/12/02 12:03:49;;;;;;;18.55;10.70;;;;;;;;;;5025095;28;20041;-63
2023/12/02 12:06:44;;;;;;;17.50;9.48;;;;;;;;;;5013775;28;20050;-65
2023/12/02 12:09:21;;;;;;;16.23;9.50;;;;;;;;;;5013417;28;20460;-63
2023/12/02 12:11:47;;;;;;;16.98;9.85;;;;;;;;;;5029730;28;20498;-63
2023/12/02 12:14:14;;;;;;;16.40;10.35;;;;;;;;;;5030435;28;20038;-61
2023/12/02 12:16:39;;;;;;;17.27;9.90;;;;;;;;;;5033402;28;20541;-62
2023/12/02 12:19:04;;;;;;;19.42;10.82;;;;;;;;;;5033165;28;20049;-61
2023/12/02 12:21:32;;;;;;;16.50;9.27;;;;;;;;;;5031729;28;20112;-62
2023/12/02 12:23:58;;;;;;;16.60;9.55;;;;;;;;;;5032365;28;20163;-63
2023/12/02 12:26:23;;;;;;;18.35;10.23;;;;;;;;;;5017125;28;20044;-62
2023/12/02 12:28:49;;;;;;;18.17;9.98;;;;;;;;;;5013286;28;20112;-63
2023/12/02 12:31:15;;;;;;;17.02;9.70;;;;;;;;;;5017974;28;20108;-63
2023/12/02 12:33:43;;;;;;;14.32;7.88;;;;;;;;;;5019392;28;20065;-63
2023/12/02 12:36:09;;;;;;;19.65;10.88;;;;;;;;;;5013551;28;20025;-64
2023/12/02 12:38:37;;;;;;;20.85;11.32;;;;;;;;;;5031952;28;20441;-62
2023/12/02 12:41:02;;;;;;;18.25;10.20;;;;;;;;;;5022325;28;20033;-64
2023/12/02 12:43:28;;;;;;;20.33;11.02;;;;;;;;;;5025149;28;20441;-64
2023/12/02 12:45:54;;;;;;;18.65;10.10;;;;;;;;;;5032517;28;20460;-64
2023/12/02 12:48:27;;;;;;;20.52;11.20;;;;;;;;;;5031668;28;20156;-63
2023/12/02 12:50:59;;;;;;;19.10;10.23;;;;;;;;;;5018824;28;22150;-64
2023/12/02 12:53:37;;;;;;;18.15;10.43;;;;;;;;;;5011926;28;20029;-63
2023/12/02 12:56:10;;;;;;;21.90;10.90;;;;;;;;;;5013039;28;20482;-64
2023/12/02 12:58:59;;;;;;;23.88;11.90;;;;;;;;;;5012119;28;20038;-63
2023/12/02 13:01:28;;;;;;;23.52;11.57;;;;;;;;;;5026248;28;20026;-62
2023/12/02 13:04:33;;;;;;;20.10;9.85;;;;;;;;;;5046106;28;20489;-63
2023/12/02 13:07:11;;;;;;;19.77;9.57;;;;;;;;;;5020491;28;20041;-64
2023/12/02 13:09:42;;;;;;;21.75;9.73;;;;;;;;;;5030238;28;20045;-63
2023/12/02 13:12:08;;;;;;;;;;;;;;;;;;5046707;28;20036;-62
2023/12/02 13:14:57;;;;;;;18.58;9.07;;;;;;;;;;5030816;28;19932;-64
2023/12/02 13:17:22;;;;;;;18.42;8.68;;;;;;;;;;5023437;28;20069;-64
2023/12/02 13:19:48;;;;;;;16.05;8.10;;;;;;;;;;5015411;28;20081;-65
2023/12/02 13:22:14;;;;;;;16.90;8.40;;;;;;;;;;5011254;28;20385;-63
2023/12/02 13:24:48;;;;;;;17.58;8.20;;;;;;;;;;5011644;28;20048;-66
2023/12/02 13:27:25;;;;;;;18.85;9.45;;;;;;;;;;5012126;28;20477;-64
2023/12/02 13:29:52;;;;;;;18.85;8.55;;;;;;;;;;5011758;28;20041;-64
2023/12/02 13:32:19;;;;;;;18.00;8.50;;;;;;;;;;5010805;28;20342;-62
2023/12/02 13:34:52;;;;;;;19.70;8.38;;;;;;;;;;5011982;28;20036;-65
2023/12/02 13:37:27;;;;;;;19.88;9.18;;;;;;;;;;5015227;28;20045;-62
2023/12/02 13:39:55;;;;;;;18.67;8.65;;;;;;;;;;5031751;28;20064;-65
2023/12/02 13:42:27;;;;;;;16.60;8.00;;;;;;;;;;5027596;28;20034;-64
2023/12/02 13:45:01;;;;;;;17.80;8.27;;;;;;;;;;5020746;28;20040;-65
2023/12/02 13:48:02;;;;;;;21.90;9.63;;;;;;;;;;5030474;28;20025;-66
2023/12/02 13:50:35;;;;;;;18.95;8.68;;;;;;;;;;5005352;28;20096;-66
2023/12/02 13:53:54;;;;;;;20.17;9.55;;;;;;;;;;5013413;28;20038;-65
2023/12/02 13:56:26;;;;;;;20.75;8.25;;;;;;;;;;4997252;28;20045;-63
2023/12/02 13:59:23;;;;;;;20.75;9.20;;;;;;;;;;5011544;28;20044;-63
2023/12/02 14:02:02;;;;;;;20.70;9.15;;;;;;;;;;5023169;28;20121;-64
2023/12/02 14:04:45;;;;;;;18.00;8.70;;;;;;;;;;5013679;28;20061;-64
2023/12/02 14:07:26;;;;;;;19.55;8.85;;;;;;;;;;5031111;28;20159;-64
2023/12/02 14:09:54;;;;;;;13.05;6.35;;;;;;;;;;5028314;28;20037;-64
2023/12/02 14:12:55;;;;;;;13.98;6.72;;;;;;;;;;5010824;28;20480;-63
2023/12/02 14:15:42;;;;;;;18.10;7.68;;;;;;;;;;5018886;28;20103;-64
2023/12/02 14:18:19;;;;;;;17.77;8.23;;;;;;;;;;5032449;28;20065;-63
2023/12/02 14:20:54;;;;;;;26.38;8.75;;;;;;;;;;5015620;28;20042;-63
2023/12/02 14:23:46;;;;;;;18.98;8.65;;;;;;;;;;5015083;28;20045;-63
2023/12/02 14:26:27;;;;;;;19.73;8.13;;;;;;;;;;5016034;28;20038;-66
2023/12/02 14:29:08;;;;;;;17.83;7.45;;;;;;;;;;5033591;28;20033;-63
2023/12/02 14:31:37;;;;;;;19.58;8.75;;;;;;;;;;5019032;28;20041;-64
2023/12/02 14:34:20;;;;;;;21.80;9.20;;;;;;;;;;5014049;28;20048;-64
2023/12/02 14:37:07;;;;;;;13.90;6.55;;;;;;;;;;5024561;28;20049;-63
2023/12/02 14:39:42;;;;;;;17.60;8.68;;;;;;;;;;5032931;28;20033;-62
2023/12/02 14:42:13;;;;;;;14.98;6.93;;;;;;;;;;5035221;28;20112;-63
2023/12/02 14:44:41;;;;;;;13.45;6.65;;;;;;;;;;5033761;28;20806;-63
2023/12/02 14:47:10;;;;;;;18.23;8.07;;;;;;;;;;5020937;28;20037;-63